Time;durP1;ratioP1;P1;durP2;ratioP2;P2;SDS_P1;SDS_P2;PMS_P1;PMS_P2;Temp;Humidity;BMP_temperature;BMP_pressure;BME280_temperature;BME280_humidity;BME280_pressure;Samples;Min_cycle;Max_cycle;Signal;HPM_P1;HPM_P2
2022/11/06 00:01:26;;;;;;;29.98;19.13;;;;;;;13.71;89.16;93976.63;5029973;28;20213;-63
2022/11/06 00:03:53;;;;;;;22.03;16.07;;;;;;;13.81;89.46;93979.78;5030380;28;20222;-60
2022/11/06 00:09:06;;;;;;;23.15;15.25;;;;;;;13.96;88.83;93993.44;5030609;28;20587;-64
2022/11/06 00:11:31;;;;;;;25.27;16.42;;;;;;;13.84;90.51;93970.00;5031659;28;20214;-59
2022/11/06 00:13:58;;;;;;;25.17;16.88;;;;;;;13.91;90.91;93957.38;5033575;28;20201;-60
2022/11/06 00:16:24;;;;;;;29.13;16.47;;;;;;;13.84;92.88;93943.66;5033045;28;20237;-59
2022/11/06 00:18:49;;;;;;;29.30;18.20;;;;;;;13.49;88.12;94029.97;5033378;28;20222;-63
2022/11/06 00:21:20;;;;;;;30.08;18.05;;;;;;;13.48;88.62;94000.31;5015312;28;20206;-61
2022/11/06 00:23:46;;;;;;;31.20;19.50;;;;;;;13.55;86.39;94038.75;5015297;28;20256;-59
2022/11/06 00:26:18;;;;;;;28.30;19.20;;;;;;;13.70;86.10;94041.44;5032998;28;20210;-63
2022/11/06 00:28:44;;;;;;;28.73;18.07;;;;;;;13.87;85.20;94050.66;5033393;28;20190;-63
2022/11/06 00:31:12;;;;;;;31.75;17.80;;;;;;;13.61;87.27;94001.56;5032942;28;20263;-62
2022/11/06 00:33:37;;;;;;;31.33;17.92;;;;;;;13.65;86.70;94025.81;5033282;28;20218;-60
2022/11/06 00:36:06;;;;;;;31.93;18.87;;;;;;;13.57;86.87;94023.28;5032760;28;20201;-60
2022/11/06 00:38:32;;;;;;;28.93;18.30;;;;;;;13.59;86.18;94024.72;5032868;28;20194;-60
2022/11/06 00:41:05;;;;;;;37.90;18.43;;;;;;;13.58;85.63;94042.72;5032609;28;20597;-64
2022/11/06 00:43:31;;;;;;;29.67;18.95;;;;;;;13.59;85.04;94039.22;5032895;28;20273;-59
2022/11/06 00:46:13;;;;;;;28.90;19.23;;;;;;;13.45;86.17;94013.38;5032591;28;20178;-60
2022/11/06 00:48:40;;;;;;;28.27;19.10;;;;;;;13.43;86.88;94004.31;5033021;28;20668;-59
2022/11/06 00:51:15;;;;;;;30.35;17.48;;;;;;;13.32;86.94;93995.25;5032917;28;20286;-59
2022/11/06 00:53:41;;;;;;;29.67;17.50;;;;;;;13.31;87.65;93993.63;5032939;28;20289;-62
2022/11/06 00:56:15;;;;;;;31.90;18.53;;;;;;;13.33;87.77;93989.16;5032430;28;20264;-60
2022/11/06 00:58:42;;;;;;;25.07;16.90;;;;;;;13.29;89.07;93964.16;5032908;28;20189;-62
2022/11/06 01:01:10;;;;;;;26.60;17.37;;;;;;;13.54;88.26;93986.09;5014791;28;20224;-59
2022/11/06 01:03:37;;;;;;;27.27;17.55;;;;;;;13.62;87.49;94000.56;5032606;28;20656;-60
2022/11/06 01:06:09;;;;;;;32.13;17.77;;;;;;;13.63;87.16;94004.75;5032402;28;20229;-62
2022/11/06 01:08:34;;;;;;;25.45;17.05;;;;;;;13.56;87.11;93998.69;5032392;28;20561;-62
2022/11/06 01:11:28;;;;;;;29.33;16.70;;;;;;;13.30;90.22;93946.09;5032286;28;20178;-62
2022/11/06 01:13:55;;;;;;;27.33;15.30;;;;;;;13.29;90.12;93946.28;5031449;28;20679;-62
2022/11/06 01:16:23;;;;;;;19.80;11.03;;;;;;;13.30;89.01;93961.41;5032230;28;20206;-59
2022/11/06 01:18:49;;;;;;;22.50;11.67;;;;;;;13.52;87.84;93982.91;5032517;28;20202;-60
2022/11/06 01:21:19;;;;;;;21.00;11.30;;;;;;;13.52;88.34;93971.88;5031712;28;20198;-61
2022/11/06 01:23:45;;;;;;;18.58;11.38;;;;;;;13.67;87.21;93995.78;5032303;28;20190;-61
2022/11/06 01:26:12;;;;;;;19.37;10.83;;;;;;;13.65;87.14;93982.38;5032426;28;20293;-62
2022/11/06 01:28:39;;;;;;;21.20;10.48;;;;;;;13.72;86.20;93999.44;5032343;28;20189;-60
2022/11/06 01:31:07;;;;;;;19.77;10.00;;;;;;;13.74;87.21;93978.81;5031989;28;20271;-63
2022/11/06 01:33:33;;;;;;;23.10;10.67;;;;;;;13.76;85.68;94000.69;5032150;28;20634;-62
2022/11/06 01:35:59;;;;;;;15.27;9.45;;;;;;;13.62;87.47;93970.75;5014220;28;20187;-61
2022/11/06 01:38:24;;;;;;;20.57;11.20;;;;;;;13.63;87.66;93974.91;5032253;28;20668;-59
2022/11/06 01:40:50;;;;;;;18.45;10.65;;;;;;;13.55;87.41;93984.34;5031949;28;20200;-60
2022/11/06 01:43:21;;;;;;;18.15;11.30;;;;;;;13.59;88.11;93977.94;5032143;28;20285;-60
2022/11/06 01:45:52;;;;;;;18.67;11.40;;;;;;;13.55;87.01;93994.53;5031894;28;20200;-59
2022/11/06 01:48:23;;;;;;;20.93;11.87;;;;;;;13.51;87.34;93981.31;5031840;28;20688;-61
2022/11/06 01:50:52;;;;;;;20.88;11.07;;;;;;;13.49;87.06;93984.00;5031823;28;20226;-59
2022/11/06 01:53:17;;;;;;;14.17;9.67;;;;;;;13.53;86.93;93988.81;5031947;28;20202;-60
2022/11/06 01:55:46;;;;;;;12.85;9.80;;;;;;;13.72;85.76;94011.41;5031841;28;20190;-60
2022/11/06 01:58:16;;;;;;;19.73;9.17;;;;;;;13.67;85.91;94006.00;5032008;28;20200;-60
2022/11/06 02:00:42;;;;;;;20.40;8.57;;;;;;;13.57;86.33;93984.97;5031695;28;20182;-59
2022/11/06 02:03:08;;;;;;;14.20;8.30;;;;;;;13.68;86.16;94008.38;5013689;28;20765;-62
2022/11/06 02:05:35;;;;;;;16.95;7.95;;;;;;;13.72;85.96;94009.66;5013679;28;20654;-63
2022/11/06 02:08:02;;;;;;;12.43;7.37;;;;;;;13.78;85.92;94009.00;5031531;28;20233;-59
2022/11/06 02:10:29;;;;;;;13.35;8.27;;;;;;;13.78;86.69;93992.88;5031412;28;20194;-60
2022/11/06 02:13:17;;;;;;;14.00;7.18;;;;;;;13.92;85.23;94031.31;5021873;22;20288;-60
2022/11/06 02:15:46;;;;;;;14.15;7.85;;;;;;;13.89;85.45;94023.19;5012308;28;20628;-59
2022/11/06 02:18:29;;;;;;;9.13;6.93;;;;;;;13.97;84.94;94030.81;4992206;28;20180;-61
2022/11/06 02:21:12;;;;;;;11.70;7.40;;;;;;;13.99;85.43;94018.66;4991967;28;20278;-60
2022/11/06 02:23:58;;;;;;;13.03;6.90;;;;;;;14.07;83.87;94052.66;4992257;28;20191;-63
2022/11/06 02:26:32;;;;;;;12.93;7.25;;;;;;;14.12;83.90;94041.91;4961673;28;20246;-60
2022/11/06 02:29:08;;;;;;;12.30;8.13;;;;;;;14.05;83.84;94041.00;4991736;28;20194;-61
2022/11/06 02:31:38;;;;;;;12.70;8.20;;;;;;;13.92;85.31;94012.59;4992030;28;20225;-63
2022/11/06 02:34:09;;;;;;;16.88;8.23;;;;;;;13.79;86.44;93990.16;4990794;28;20188;-62
2022/11/06 02:36:39;;;;;;;13.65;7.82;;;;;;;13.94;85.07;94019.16;4991861;28;20302;-63
2022/11/06 02:39:11;;;;;;;22.53;8.27;;;;;;;13.89;86.34;93998.44;4991754;28;20241;-63
2022/11/06 02:41:41;;;;;;;13.97;7.80;;;;;;;14.00;86.01;94015.94;4991748;28;20653;-60
2022/11/06 02:44:10;;;;;;;14.83;7.60;;;;;;;13.89;86.30;93997.63;4990406;28;20185;-61
2022/11/06 02:47:01;;;;;;;16.60;8.38;;;;;;;13.95;86.35;94004.63;4991759;28;20218;-59
2022/11/06 02:49:39;;;;;;;14.27;7.90;;;;;;;13.99;85.67;94027.13;4991452;28;20205;-62
2022/11/06 02:52:13;;;;;;;10.77;6.95;;;;;;;14.03;85.26;94035.25;4991959;28;20207;-60
2022/11/06 02:54:45;;;;;;;13.82;8.15;;;;;;;14.00;86.15;94017.69;4991507;28;20602;-63
2022/11/06 02:57:14;;;;;;;10.20;7.95;;;;;;;13.93;86.53;94019.34;5033967;23;20238;-59
2022/11/06 02:59:46;;;;;;;12.23;7.68;;;;;;;13.73;88.60;93983.16;5030715;28;20328;-60
2022/11/06 03:02:19;;;;;;;11.13;7.43;;;;;;;14.01;86.65;94015.00;5025967;28;20250;-63
2022/11/06 03:04:51;;;;;;;13.40;8.00;;;;;;;14.02;85.46;94031.91;5010932;28;20195;-62
2022/11/06 03:07:49;;;;;;;13.27;6.90;;;;;;;14.05;85.92;94036.69;5010734;28;20230;-60
2022/11/06 03:10:15;;;;;;;9.73;6.80;;;;;;;14.05;85.60;94053.78;5010996;28;20657;-59
2022/11/06 03:12:59;;;;;;;10.75;7.55;;;;;;;13.86;87.33;94010.72;5010795;28;20222;-60
2022/11/06 03:15:33;;;;;;;14.38;7.57;;;;;;;13.88;87.41;94017.25;5010883;28;20676;-59
2022/11/06 03:18:12;;;;;;;14.07;7.07;;;;;;;14.00;86.04;94040.69;5010962;28;20226;-60
2022/11/06 03:20:49;;;;;;;13.07;7.88;;;;;;;13.99;86.54;94036.56;5010917;28;20727;-60
2022/11/06 03:23:26;;;;;;;14.57;7.25;;;;;;;13.81;88.65;94001.00;4993221;28;20186;-59
2022/11/06 03:26:09;;;;;;;12.15;8.13;;;;;;;13.96;86.94;94030.00;5010753;28;20269;-62
2022/11/06 03:28:42;;;;;;;13.60;7.72;;;;;;;13.82;87.85;94015.38;5010751;28;20224;-58
2022/11/06 03:31:12;;;;;;;15.27;6.97;;;;;;;13.75;88.86;93999.13;5010697;28;20248;-62
2022/11/06 03:33:46;;;;;;;12.07;7.32;;;;;;;13.76;89.52;93989.69;5010669;28;20195;-60
2022/11/06 03:36:21;;;;;;;12.93;7.32;;;;;;;13.81;89.14;94002.78;5010677;28;20221;-59
2022/11/06 03:38:54;;;;;;;12.70;7.05;;;;;;;13.65;91.05;93972.16;5010625;28;20229;-60
2022/11/06 03:41:37;;;;;;;11.75;7.03;;;;;;;13.69;90.95;93984.47;5010676;28;20230;-63
2022/11/06 03:44:06;;;;;;;15.27;7.50;;;;;;;13.71;91.35;93981.72;5010337;28;20229;-62
2022/11/06 03:46:36;;;;;;;12.25;7.15;;;;;;;13.61;92.18;93964.06;5014080;28;20223;-60
2022/11/06 03:49:05;;;;;;;14.55;8.20;;;;;;;13.84;90.33;93987.09;5013641;28;20257;-59
2022/11/06 03:51:56;;;;;;;11.95;6.60;;;;;;;13.87;90.05;93994.44;4996052;28;20211;-63
2022/11/06 03:54:28;;;;;;;12.00;6.85;;;;;;;13.78;90.78;93986.00;5013633;28;20191;-60
2022/11/06 03:57:00;;;;;;;15.05;7.28;;;;;;;13.71;90.70;93976.63;5014017;28;20225;-62
2022/11/06 03:59:31;;;;;;;10.88;6.72;;;;;;;13.57;91.29;93969.66;5013654;28;20665;-61
2022/11/06 04:01:57;;;;;;;10.57;6.50;;;;;;;13.44;92.56;93960.75;5013867;28;20226;-60
2022/11/06 04:04:25;;;;;;;11.47;6.97;;;;;;;13.34;93.78;93939.72;5013502;28;20290;-60
2022/11/06 04:06:55;;;;;;;13.85;7.65;;;;;;;13.19;94.64;93926.00;5013482;28;20222;-59
2022/11/06 04:14:58;;;;;;;9.60;6.87;;;;;;;13.11;99.80;93982.19;5013670;28;20202;-60
2022/11/06 04:17:27;;;;;;;11.77;6.90;;;;;;;13.07;100.00;93991.13;5013708;28;20207;-60
2022/11/06 04:19:57;;;;;;;12.18;6.75;;;;;;;13.17;100.00;93986.63;5013287;28;20186;-59
2022/11/06 04:22:28;;;;;;;13.20;6.82;;;;;;;13.09;100.00;93981.53;4995847;28;20258;-59
2022/11/06 04:28:33;;;;;;;10.43;7.03;;;;;;;13.02;100.00;93993.34;5013233;28;20222;-60
2022/11/06 04:31:08;;;;;;;13.80;6.93;;;;;;;13.08;100.00;94000.38;5013632;28;20187;-62
2022/11/06 04:34:03;;;;;;;13.80;8.07;;;;;;;13.11;100.00;94010.25;4995620;28;20214;-63
2022/11/06 04:36:45;;;;;;;11.57;7.40;;;;;;;13.07;100.00;94008.97;5012950;28;20222;-59
2022/11/06 04:39:28;;;;;;;11.25;7.18;;;;;;;13.08;100.00;94012.34;5013227;28;20202;-61
2022/11/06 04:42:01;;;;;;;11.48;6.75;;;;;;;13.10;100.00;94010.41;5013212;28;20317;-62
2022/11/06 04:44:36;;;;;;;11.30;7.47;;;;;;;13.00;100.00;94007.19;5013273;28;20197;-59
2022/11/06 04:47:05;;;;;;;10.67;8.10;;;;;;;12.92;100.00;94007.19;5013050;28;20222;-60
2022/11/06 04:49:33;;;;;;;12.70;7.50;;;;;;;13.01;100.00;94016.47;5012888;28;20194;-59
2022/11/06 04:52:06;;;;;;;13.57;7.70;;;;;;;12.93;100.00;94017.25;5013208;28;20242;-59
2022/11/06 04:54:32;;;;;;;13.00;8.50;;;;;;;12.81;100.00;94010.84;5028204;28;20632;-60
2022/11/06 04:56:59;;;;;;;12.53;8.23;;;;;;;12.84;100.00;94017.41;5044114;22;20313;-59
2022/11/06 04:59:25;;;;;;;14.23;7.17;;;;;;;12.89;100.00;94023.63;5032539;28;20277;-60
2022/11/06 05:01:50;;;;;;;14.30;8.10;;;;;;;12.85;100.00;94035.09;5032336;28;20245;-62
2022/11/06 05:04:16;;;;;;;11.33;7.57;;;;;;;12.83;100.00;94037.00;5032458;28;20682;-60
2022/11/06 05:06:41;;;;;;;11.20;7.93;;;;;;;12.78;100.00;94041.00;5055681;23;20222;-62
2022/11/06 05:09:07;;;;;;;12.13;8.30;;;;;;;12.79;100.00;94045.13;5032507;28;20281;-59
2022/11/06 05:11:32;;;;;;;12.97;8.70;;;;;;;12.79;100.00;94051.03;5032218;28;20298;-60
2022/11/06 05:14:05;;;;;;;13.97;8.40;;;;;;;12.94;100.00;94059.66;5032288;28;20288;-60
2022/11/06 05:16:30;;;;;;;12.93;8.83;;;;;;;12.88;100.00;94072.25;5032523;28;20238;-61
2022/11/06 05:18:56;;;;;;;12.87;8.30;;;;;;;12.76;100.00;94071.75;5032220;28;20244;-60
2022/11/06 05:24:06;;;;;;;11.07;8.30;;;;;;;12.85;100.00;94091.22;5032520;28;20200;-60
2022/11/06 05:26:31;;;;;;;12.95;8.32;;;;;;;12.98;100.00;94093.31;5014184;28;20297;-62
2022/11/06 05:28:57;;;;;;;17.40;8.30;;;;;;;12.89;100.00;94089.94;5014349;28;20196;-61
2022/11/06 05:31:23;;;;;;;14.53;8.77;;;;;;;13.03;100.00;94094.44;5031750;28;20198;-58
2022/11/06 05:33:48;;;;;;;15.47;9.20;;;;;;;13.17;100.00;94106.59;5014213;28;20222;-62
2022/11/06 05:36:14;;;;;;;16.33;8.90;;;;;;;13.20;100.00;94096.06;5031722;28;20206;-60
2022/11/06 05:38:39;;;;;;;13.60;9.02;;;;;;;13.15;100.00;94093.19;5031946;28;20681;-59
2022/11/06 05:41:05;;;;;;;13.90;8.80;;;;;;;13.15;100.00;94093.19;5031791;28;20214;-59
2022/11/06 05:43:30;;;;;;;13.48;8.80;;;;;;;13.15;100.00;94095.75;5014161;28;20194;-60
2022/11/06 05:45:55;;;;;;;13.27;8.70;;;;;;;13.14;100.00;94091.59;5031927;28;20277;-60
2022/11/06 05:48:21;;;;;;;14.32;8.48;;;;;;;13.31;100.00;94111.06;5031941;28;20263;-61
2022/11/06 05:50:46;;;;;;;12.27;8.73;;;;;;;13.29;100.00;94114.75;5031744;28;20280;-60
2022/11/06 05:53:12;;;;;;;16.08;9.02;;;;;;;13.29;100.00;94112.97;5031749;28;20272;-63
2022/11/06 05:55:38;;;;;;;13.83;8.97;;;;;;;13.24;100.00;94117.78;5014148;28;20672;-60
2022/11/06 05:58:03;;;;;;;13.70;8.27;;;;;;;13.22;100.00;94119.69;5032130;28;20277;-61
2022/11/06 06:00:28;;;;;;;20.37;8.90;;;;;;;13.35;100.00;94130.19;5031679;28;20269;-62
2022/11/06 06:02:54;;;;;;;17.42;8.88;;;;;;;13.18;100.00;94123.50;5032012;28;20260;-59
2022/11/06 06:05:19;;;;;;;16.92;9.25;;;;;;;13.21;100.00;94125.72;5031850;28;20191;-59
2022/11/06 06:07:45;;;;;;;16.10;8.73;;;;;;;13.21;100.00;94125.72;5031406;28;20220;-62
2022/11/06 06:10:10;;;;;;;14.40;8.50;;;;;;;13.27;100.00;94137.09;5031515;28;20186;-59
2022/11/06 06:12:38;;;;;;;14.60;8.03;;;;;;;13.39;100.00;94144.25;5031533;28;20237;-60
2022/11/06 06:15:04;;;;;;;14.38;8.65;;;;;;;13.37;100.00;94142.84;5013486;28;20226;-61
2022/11/06 06:17:30;;;;;;;16.58;9.05;;;;;;;13.56;100.00;94151.91;5031424;28;20628;-61
2022/11/06 06:19:55;;;;;;;13.83;8.27;;;;;;;13.47;100.00;94148.56;5031644;28;20656;-60
2022/11/06 06:22:21;;;;;;;13.48;7.97;;;;;;;13.63;100.00;94168.19;5026196;22;20230;-60
2022/11/06 06:24:46;;;;;;;14.07;9.27;;;;;;;13.61;100.00;94167.56;5012171;28;20210;-59
2022/11/06 06:27:12;;;;;;;10.68;7.70;;;;;;;13.54;100.00;94154.63;5011308;28;20604;-60
2022/11/06 06:29:37;;;;;;;13.48;9.23;;;;;;;13.56;100.00;94167.22;5011434;28;20201;-60
2022/11/06 06:32:03;;;;;;;13.77;8.07;;;;;;;13.67;100.00;94182.25;5011426;28;20535;-62
2022/11/06 06:34:29;;;;;;;15.88;8.93;;;;;;;13.79;100.00;94198.84;5011509;28;20548;-60
2022/11/06 06:36:54;;;;;;;15.93;8.73;;;;;;;13.87;100.00;94192.00;5011714;28;20217;-60
2022/11/06 06:39:20;;;;;;;11.68;8.52;;;;;;;13.86;100.00;94190.38;5011405;28;20187;-63
2022/11/06 06:41:47;;;;;;;13.07;8.98;;;;;;;13.74;100.00;94178.88;5010208;28;20744;-63
2022/11/06 06:44:13;;;;;;;15.83;9.17;;;;;;;13.72;100.00;94177.44;5011247;28;20249;-59
2022/11/06 06:46:39;;;;;;;13.55;9.50;;;;;;;13.72;100.00;94187.66;5011530;28;20218;-60
2022/11/06 06:49:04;;;;;;;13.13;9.67;;;;;;;13.73;100.00;94184.97;5011265;28;20546;-59
2022/11/06 06:51:30;;;;;;;17.93;9.67;;;;;;;13.66;100.00;94178.09;5011117;28;20224;-61
2022/11/06 06:53:55;;;;;;;16.73;9.67;;;;;;;13.70;100.00;94176.81;5011201;28;20233;-59
2022/11/06 06:56:21;;;;;;;14.93;10.27;;;;;;;13.60;100.00;94179.53;5011231;28;20237;-58
2022/11/06 06:58:47;;;;;;;18.87;10.10;;;;;;;13.73;100.00;94195.19;5011020;28;20201;-60
2022/11/06 07:01:13;;;;;;;13.50;9.87;;;;;;;13.78;100.00;94204.91;5011458;28;20302;-60
2022/11/06 07:03:39;;;;;;;17.40;9.77;;;;;;;13.91;100.00;94210.34;5011080;28;20202;-62
2022/11/06 07:06:05;;;;;;;14.80;9.48;;;;;;;13.88;100.00;94210.66;5011046;28;20647;-59
2022/11/06 07:08:31;;;;;;;17.95;10.05;;;;;;;13.78;100.00;94192.94;5010889;28;20727;-60
2022/11/06 07:11:06;;;;;;;19.13;9.70;;;;;;;13.85;100.00;94209.22;5010742;28;20252;-59
2022/11/06 07:13:32;;;;;;;14.33;9.67;;;;;;;13.91;100.00;94218.00;5010861;28;20218;-59
2022/11/06 07:15:58;;;;;;;17.85;10.35;;;;;;;13.82;100.00;94208.72;5010659;28;20191;-63
2022/11/06 07:18:24;;;;;;;12.13;9.37;;;;;;;13.82;100.00;94209.53;5011145;28;20241;-60
2022/11/06 07:20:50;;;;;;;14.98;10.20;;;;;;;13.85;100.00;94218.66;5011844;28;20197;-60
2022/11/06 07:23:15;;;;;;;16.80;10.13;;;;;;;13.96;100.00;94231.88;5014622;28;20194;-61
2022/11/06 07:25:41;;;;;;;15.00;10.10;;;;;;;14.03;100.00;94242.28;5014444;28;20270;-59
2022/11/06 07:28:07;;;;;;;15.57;10.70;;;;;;;14.16;100.00;94245.94;5014091;28;20218;-60
2022/11/06 07:30:34;;;;;;;16.85;9.50;;;;;;;14.23;100.00;94264.00;5012999;28;20221;-59
2022/11/06 07:33:04;;;;;;;14.40;10.45;;;;;;;14.14;100.00;94249.59;5014204;28;20207;-60
2022/11/06 07:35:30;;;;;;;14.38;10.40;;;;;;;14.28;100.00;94266.91;5014062;28;20206;-60
2022/11/06 07:37:56;;;;;;;17.45;10.95;;;;;;;14.16;100.00;94257.91;5014049;28;20265;-61
2022/11/06 07:40:21;;;;;;;14.65;11.13;;;;;;;14.23;100.00;94264.78;5014014;28;20187;-61
2022/11/06 07:42:46;;;;;;;18.90;11.95;;;;;;;14.34;100.00;94273.94;5014039;28;20742;-59
2022/11/06 07:45:12;;;;;;;15.43;11.38;;;;;;;14.35;100.00;94272.97;5013836;28;20179;-60
2022/11/06 07:47:37;;;;;;;20.20;11.52;;;;;;;14.29;100.00;94260.81;5012477;28;20319;-60
2022/11/06 07:50:04;;;;;;;16.13;11.37;;;;;;;14.30;100.00;94255.53;5013946;28;20646;-62
2022/11/06 07:52:29;;;;;;;19.90;11.27;;;;;;;14.40;100.00;94273.28;5014106;28;20229;-59
2022/11/06 07:54:55;;;;;;;17.17;11.45;;;;;;;14.38;100.00;94275.22;5013936;28;20194;-59
2022/11/06 07:57:20;;;;;;;15.35;10.38;;;;;;;14.44;100.00;94269.44;5013949;28;20207;-61
2022/11/06 07:59:46;;;;;;;17.23;11.15;;;;;;;14.50;100.00;94268.00;5013763;28;20214;-62
2022/11/06 08:02:11;;;;;;;16.70;11.82;;;;;;;14.55;100.00;94266.53;5013477;28;20293;-63
2022/11/06 08:04:38;;;;;;;17.67;11.27;;;;;;;14.68;100.00;94301.84;5013788;28;20187;-62
2022/11/06 08:07:03;;;;;;;19.65;11.63;;;;;;;14.42;100.00;94263.69;5013865;28;20227;-60
2022/11/06 08:09:29;;;;;;;18.55;12.98;;;;;;;14.45;100.00;94239.53;5028753;28;20221;-61
2022/11/06 08:11:55;;;;;;;16.00;12.25;;;;;;;14.68;100.00;94243.81;5014149;28;20207;-60
2022/11/06 08:14:20;;;;;;;22.00;13.07;;;;;;;14.70;100.00;94259.78;5013616;28;20179;-61
2022/11/06 08:16:46;;;;;;;21.05;12.85;;;;;;;14.65;100.00;94258.66;5013879;28;20218;-61
2022/11/06 08:19:12;;;;;;;18.60;13.63;;;;;;;14.58;100.00;94243.19;5012441;28;20547;-62
2022/11/06 08:21:37;;;;;;;21.58;13.40;;;;;;;14.62;100.00;94261.56;5012276;28;20214;-61
2022/11/06 08:24:03;;;;;;;21.40;14.35;;;;;;;14.73;100.00;94272.25;5012721;28;20187;-63
2022/11/06 08:26:29;;;;;;;20.70;14.02;;;;;;;14.75;100.00;94269.50;5013527;28;20299;-60
2022/11/06 08:28:55;;;;;;;25.38;15.40;;;;;;;14.81;100.00;94279.91;5013552;28;20711;-61
2022/11/06 08:31:21;;;;;;;22.83;14.38;;;;;;;14.72;100.00;94234.84;5012553;28;20215;-61
2022/11/06 08:33:46;;;;;;;20.80;15.00;;;;;;;14.69;100.00;94229.22;5013367;28;20205;-60
2022/11/06 08:36:12;;;;;;;24.65;17.50;;;;;;;14.77;100.00;94253.03;5013503;28;20207;-60
2022/11/06 08:38:38;;;;;;;26.27;16.92;;;;;;;14.79;100.00;94248.56;5013298;28;20677;-62
2022/11/06 08:41:08;;;;;;;32.30;22.55;;;;;;;14.80;100.00;94254.47;5013095;28;20241;-63
2022/11/06 08:43:35;;;;;;;27.70;19.42;;;;;;;14.86;100.00;94262.31;5013456;28;20186;-60
2022/11/06 08:46:01;;;;;;;22.63;14.20;;;;;;;14.86;100.00;94276.84;5013165;28;20197;-60
2022/11/06 08:48:26;;;;;;;27.70;17.27;;;;;;;14.71;100.00;94258.81;5013420;28;20245;-61
2022/11/06 08:50:52;;;;;;;24.23;16.50;;;;;;;14.67;100.00;94265.22;5013314;28;20229;-60
2022/11/06 08:53:17;;;;;;;19.58;13.68;;;;;;;14.56;100.00;94265.59;5012033;28;20193;-63
2022/11/06 08:55:43;;;;;;;20.33;12.63;;;;;;;14.71;100.00;94274.16;5011737;28;20669;-63
2022/11/06 08:58:08;;;;;;;18.15;12.95;;;;;;;14.73;100.00;94267.13;5013007;28;20231;-61
2022/11/06 09:00:35;;;;;;;16.88;13.05;;;;;;;14.70;100.00;94275.16;5013121;28;20202;-62
2022/11/06 09:03:03;;;;;;;16.13;12.30;;;;;;;14.66;100.00;94290.97;5012915;28;20288;-62
2022/11/06 09:05:30;;;;;;;22.38;13.10;;;;;;;14.63;100.00;94279.31;5013001;28;20203;-59
2022/11/06 09:07:56;;;;;;;23.17;13.33;;;;;;;14.59;100.00;94278.03;5012795;28;20600;-60
2022/11/06 09:10:23;;;;;;;22.88;13.85;;;;;;;14.72;100.00;94285.22;5012919;28;20198;-60
2022/11/06 09:12:49;;;;;;;15.50;10.52;;;;;;;14.62;100.00;94295.63;5012842;28;20293;-62
2022/11/06 09:15:14;;;;;;;17.70;12.00;;;;;;;14.55;100.00;94284.44;5012920;28;20304;-63
2022/11/06 09:17:44;;;;;;;18.33;12.23;;;;;;;14.44;100.00;94284.78;5011382;28;20716;-60
2022/11/06 09:20:11;;;;;;;15.98;11.52;;;;;;;14.40;100.00;94282.72;5011385;28;20187;-60
2022/11/06 09:22:37;;;;;;;14.85;11.95;;;;;;;14.48;100.00;94287.81;5012815;28;20214;-60
2022/11/06 09:25:02;;;;;;;14.88;11.73;;;;;;;14.54;100.00;94287.97;5012886;28;20190;-60
2022/11/06 09:27:28;;;;;;;13.57;10.95;;;;;;;14.73;100.00;94285.03;5012379;28;20313;-60
2022/11/06 09:29:53;;;;;;;17.85;12.15;;;;;;;14.79;100.00;94281.81;5011224;28;20190;-61
2022/11/06 09:32:19;;;;;;;14.93;12.18;;;;;;;14.76;100.00;94296.72;5012373;28;20589;-60
2022/11/06 09:34:44;;;;;;;15.88;11.70;;;;;;;14.61;100.00;94293.22;5011098;28;20198;-61
2022/11/06 09:37:10;;;;;;;18.42;12.45;;;;;;;14.75;100.00;94292.53;5012682;28;20579;-60
2022/11/06 09:39:35;;;;;;;18.35;12.13;;;;;;;14.76;100.00;94286.47;5012243;28;20229;-60
2022/11/06 09:42:23;;;;;;;15.88;12.73;;;;;;;14.87;100.00;94288.66;5011933;28;20232;-60
2022/11/06 09:44:57;;;;;;;15.40;11.05;;;;;;;14.95;100.00;94288.63;5012313;28;20622;-60
2022/11/06 09:47:28;;;;;;;14.90;12.13;;;;;;;14.85;100.00;94290.59;5012081;28;20221;-60
2022/11/06 09:49:56;;;;;;;16.67;11.70;;;;;;;15.12;100.00;94292.75;5012300;28;20195;-61
2022/11/06 09:52:39;;;;;;;13.23;11.80;;;;;;;14.95;100.00;94291.19;5012148;28;20257;-60
2022/11/06 09:55:15;;;;;;;14.75;11.10;;;;;;;14.96;100.00;94291.06;5010838;28;20198;-59
2022/11/06 09:57:49;;;;;;;13.88;10.60;;;;;;;14.86;100.00;94282.78;5012084;28;20297;-61
2022/11/06 10:00:16;;;;;;;17.05;10.55;;;;;;;14.91;100.00;94295.06;5012107;28;20197;-63
2022/11/06 10:02:48;;;;;;;11.75;9.70;;;;;;;14.96;100.00;94291.06;5011936;28;20214;-60
2022/11/06 10:05:20;;;;;;;15.40;9.10;;;;;;;14.87;100.00;94286.91;5012008;28;20681;-60
2022/11/06 10:07:48;;;;;;;11.52;8.60;;;;;;;14.81;100.00;94284.22;5011930;28;20226;-63
2022/11/06 10:10:17;;;;;;;9.02;8.13;;;;;;;14.74;100.00;94281.53;5011667;28;20661;-59
2022/11/06 10:13:19;;;;;;;11.73;8.40;;;;;;;14.84;100.00;94289.81;5011716;28;20314;-63
2022/11/06 10:15:56;;;;;;;17.40;8.18;;;;;;;14.84;100.00;94287.25;5011582;28;20191;-61
2022/11/06 10:18:31;;;;;;;14.77;8.25;;;;;;;14.86;100.00;94293.00;5011707;28;20194;-60
2022/11/06 10:21:13;;;;;;;9.38;7.80;;;;;;;14.91;100.00;94288.19;5011753;28;20193;-60
2022/11/06 10:23:48;;;;;;;10.52;7.30;;;;;;;14.99;100.00;94303.50;5011600;28;20262;-60
2022/11/06 10:26:17;;;;;;;11.50;7.13;;;;;;;15.17;100.00;94310.97;5011765;28;20723;-60
2022/11/06 10:28:51;;;;;;;7.90;6.07;;;;;;;14.89;100.00;94287.53;5011498;28;20225;-61
2022/11/06 10:31:58;;;;;;;7.72;6.75;;;;;;;14.95;100.00;94297.13;5011401;28;20309;-60
2022/11/06 10:34:29;;;;;;;8.55;6.20;;;;;;;15.07;100.00;94298.38;4967932;28;20195;-59
2022/11/06 10:37:11;;;;;;;7.60;5.50;;;;;;;15.16;100.00;94299.13;5011499;28;20245;-61
2022/11/06 10:39:36;;;;;;;8.85;5.95;;;;;;;15.24;100.00;94299.09;5010384;28;20580;-63
2022/11/06 10:42:09;;;;;;;9.70;5.90;;;;;;;15.02;100.00;94285.28;5009885;28;20219;-63
2022/11/06 10:44:44;;;;;;;7.88;5.55;;;;;;;14.98;100.00;94289.13;5011211;28;20310;-61
2022/11/06 10:47:16;;;;;;;6.20;5.60;;;;;;;14.98;100.00;94289.13;5011454;28;20214;-61
2022/11/06 10:49:54;;;;;;;4.90;4.40;;;;;;;14.95;100.00;94309.94;5011721;28;20198;-65
2022/11/06 10:52:31;;;;;;;4.50;4.10;;;;;;;14.80;100.00;94296.22;5011509;28;20661;-60
2022/11/06 10:55:14;;;;;;;6.22;4.80;;;;;;;14.80;100.00;94314.13;5010770;28;20235;-60
2022/11/06 10:58:00;;;;;;;5.13;3.53;;;;;;;14.66;100.00;94296.91;5011204;28;20349;-59
2022/11/06 11:00:25;;;;;;;6.45;4.40;;;;;;;14.77;100.00;94305.97;5010881;28;20205;-62
2022/11/06 11:02:56;;;;;;;5.65;4.40;;;;;;;14.71;100.00;94307.44;5011249;28;20313;-61
2022/11/06 11:05:41;;;;;;;5.57;4.38;;;;;;;14.32;100.00;94285.28;5011110;28;20230;-60
2022/11/06 11:08:29;;;;;;;4.88;4.35;;;;;;;14.37;100.00;94290.69;5011063;28;20592;-61
2022/11/06 11:11:27;;;;;;;6.17;4.67;;;;;;;14.31;100.00;94274.25;5009587;28;20209;-61
2022/11/06 11:13:56;;;;;;;8.00;5.00;;;;;;;14.34;100.00;94293.59;5007201;28;20199;-61
2022/11/06 11:16:25;;;;;;;6.70;4.38;;;;;;;14.38;100.00;94282.88;5009781;28;21100;-62
2022/11/06 11:18:51;;;;;;;5.55;4.70;;;;;;;14.52;100.00;94289.09;5010965;28;20198;-60
2022/11/06 11:21:17;;;;;;;8.38;5.43;;;;;;;14.36;100.00;94289.91;5011053;28;20214;-61
2022/11/06 11:23:43;;;;;;;6.05;4.68;;;;;;;14.40;100.00;94283.50;5011120;28;20236;-61
2022/11/06 11:26:27;;;;;;;6.32;5.05;;;;;;;14.50;100.00;94285.88;5010924;28;20220;-62
2022/11/06 11:28:58;;;;;;;6.45;5.43;;;;;;;14.58;100.00;94289.25;5011073;28;20672;-60
2022/11/06 11:31:32;;;;;;;7.40;5.65;;;;;;;14.72;100.00;94278.34;5011018;28;20677;-63
2022/11/06 11:34:01;;;;;;;8.15;6.28;;;;;;;14.66;100.00;94276.44;5010793;28;20273;-61
2022/11/06 11:36:57;;;;;;;10.95;7.60;;;;;;;14.76;100.00;94281.34;5010780;28;20273;-63
2022/11/06 11:39:34;;;;;;;11.13;7.90;;;;;;;14.87;100.00;94284.34;5010683;28;20186;-60
2022/11/06 11:42:27;;;;;;;10.68;8.48;;;;;;;14.81;100.00;94290.13;5010778;28;20210;-61
2022/11/06 11:45:08;;;;;;;10.48;8.25;;;;;;;14.66;100.00;94281.56;5010657;28;20605;-60